Time;durP1;ratioP1;P1;durP2;ratioP2;P2;SDS_P1;SDS_P2;PMS_P1;PMS_P2;Temp;Humidity;BMP_temperature;BMP_pressure;BME280_temperature;BME280_humidity;BME280_pressure;Samples;Min_cycle;Max_cycle;Signal;HPM_P1;HPM_P2
2021/12/02 00:00:06;;;;;;;13.27;3.43;;;5.10;99.90;;;;;;5113463;28;20208;-74
2021/12/02 00:02:33;;;;;;;11.80;3.43;;;5.00;99.90;;;;;;5111870;28;20262;-74
2021/12/02 00:05:01;;;;;;;9.93;3.03;;;4.90;99.90;;;;;;5110900;28;20216;-74
2021/12/02 00:07:28;;;;;;;10.23;3.00;;;4.80;99.90;;;;;;5110630;28;20226;-74
2021/12/02 00:09:56;;;;;;;8.47;3.17;;;4.90;99.90;;;;;;5111403;28;20193;-74
2021/12/02 00:12:23;;;;;;;14.80;4.53;;;4.80;99.90;;;;;;5119228;28;20209;-74
2021/12/02 00:14:51;;;;;;;14.37;5.80;;;4.70;99.90;;;;;;5128048;28;20284;-74
2021/12/02 00:17:22;;;;;;;17.80;6.63;;;4.70;99.90;;;;;;5124120;28;20775;-74
2021/12/02 00:22:52;;;;;;;11.60;4.87;;;4.50;99.90;;;;;;5112114;28;20208;-74
2021/12/02 00:25:21;;;;;;;13.10;3.33;;;4.30;99.90;;;;;;5111617;28;20649;-74
2021/12/02 00:27:48;;;;;;;14.20;3.53;;;4.30;99.90;;;;;;5126039;28;20229;-73
2021/12/02 00:30:16;;;;;;;9.93;2.83;;;4.40;99.90;;;;;;5130977;28;20224;-73
2021/12/02 00:32:44;;;;;;;11.70;3.20;;;4.40;99.90;;;;;;5111138;28;20207;-73
2021/12/02 00:35:11;;;;;;;11.50;3.47;;;4.50;99.90;;;;;;5115506;28;20254;-73
2021/12/02 00:37:40;;;;;;;9.67;3.70;;;4.50;99.90;;;;;;5110315;28;20209;-73
2021/12/02 00:40:09;;;;;;;12.43;3.97;;;4.60;99.90;;;;;;5122711;27;20209;-73
2021/12/02 00:42:36;;;;;;;11.73;3.50;;;4.70;99.90;;;;;;5119077;27;20270;-73
2021/12/02 00:45:05;;;;;;;8.60;2.97;;;4.70;99.90;;;;;;5114664;28;20674;-74
2021/12/02 00:47:33;;;;;;;11.47;3.40;;;4.70;99.90;;;;;;5118523;27;20265;-74
2021/12/02 00:50:00;;;;;;;11.43;3.27;;;4.50;99.90;;;;;;5128240;27;20579;-73
2021/12/02 00:52:29;;;;;;;13.23;3.23;;;4.50;99.90;;;;;;5121804;27;20572;-73
2021/12/02 00:54:57;;;;;;;10.53;3.90;;;4.30;99.90;;;;;;5118495;27;20207;-73
2021/12/02 00:57:27;;;;;;;11.17;3.17;;;4.50;99.90;;;;;;5124359;27;20672;-73
2021/12/02 00:59:57;;;;;;;11.13;3.47;;;4.50;99.90;;;;;;5114247;28;20527;-73
2021/12/02 01:02:25;;;;;;;10.97;3.83;;;4.60;99.90;;;;;;5129262;27;20770;-74
2021/12/02 01:04:53;;;;;;;14.00;3.60;;;4.70;99.90;;;;;;5113534;27;20207;-73
2021/12/02 01:07:21;;;;;;;10.10;3.00;;;4.70;99.90;;;;;;5125654;27;20654;-73
2021/12/02 01:09:49;;;;;;;13.17;3.63;;;4.70;99.90;;;;;;5122534;27;20649;-73
2021/12/02 01:12:18;;;;;;;11.23;3.10;;;4.80;99.90;;;;;;5114036;27;20283;-74
2021/12/02 01:14:45;;;;;;;15.50;3.60;;;4.90;99.90;;;;;;5115362;27;20229;-73
2021/12/02 01:17:13;;;;;;;14.57;3.33;;;4.90;99.90;;;;;;5114548;27;20224;-73
2021/12/02 01:19:40;;;;;;;9.60;3.10;;;4.90;99.90;;;;;;5124319;27;20241;-73
2021/12/02 01:22:08;;;;;;;7.07;3.23;;;5.00;99.90;;;;;;5095874;28;20202;-73
2021/12/02 01:24:36;;;;;;;10.67;3.03;;;5.00;99.90;;;;;;5113919;27;20217;-74
2021/12/02 01:27:08;;;;;;;9.27;2.47;;;5.00;99.90;;;;;;5113459;28;20209;-73
2021/12/02 01:29:39;;;;;;;7.73;3.00;;;5.00;99.90;;;;;;5114017;28;20218;-73
2021/12/02 01:32:08;;;;;;;11.67;3.17;;;5.10;99.90;;;;;;5119092;27;20205;-73
2021/12/02 01:34:35;;;;;;;8.67;3.00;;;5.10;99.90;;;;;;5113498;27;20632;-73
2021/12/02 01:37:03;;;;;;;11.10;3.23;;;5.20;99.90;;;;;;5120134;27;20193;-73
2021/12/02 01:39:31;;;;;;;10.27;2.97;;;5.20;99.90;;;;;;5114928;27;20692;-73
2021/12/02 01:41:59;;;;;;;8.10;3.00;;;5.20;99.90;;;;;;5113816;27;20291;-73
2021/12/02 01:44:28;;;;;;;12.93;3.20;;;5.30;99.90;;;;;;5118233;27;20205;-73
2021/12/02 01:47:00;;;;;;;11.30;2.83;;;5.30;99.90;;;;;;5113845;28;20690;-73
2021/12/02 01:49:30;;;;;;;8.57;2.93;;;5.30;99.90;;;;;;5118826;27;20217;-75
2021/12/02 01:51:58;;;;;;;9.43;2.97;;;5.40;99.90;;;;;;5112646;28;20200;-74
2021/12/02 01:54:27;;;;;;;8.27;2.93;;;5.40;99.90;;;;;;5119445;27;20200;-74
2021/12/02 01:56:58;;;;;;;8.03;2.60;;;5.40;99.90;;;;;;5115153;27;20221;-74
2021/12/02 01:59:28;;;;;;;5.30;2.63;;;5.50;99.90;;;;;;5114525;27;20202;-74
2021/12/02 02:01:59;;;;;;;7.30;2.63;;;5.50;99.90;;;;;;5113077;28;20243;-74
2021/12/02 02:04:27;;;;;;;4.33;2.00;;;5.50;99.90;;;;;;5115504;27;20550;-74
2021/12/02 02:06:57;;;;;;;6.57;1.80;;;5.50;99.90;;;;;;5127142;27;20190;-74
2021/12/02 02:09:26;;;;;;;3.87;1.90;;;5.50;99.90;;;;;;5113010;28;20218;-74
2021/12/02 02:11:53;;;;;;;4.47;2.00;;;5.60;99.90;;;;;;5112369;27;20243;-74
2021/12/02 02:14:21;;;;;;;3.93;1.87;;;5.60;99.90;;;;;;5111968;28;20230;-74
2021/12/02 02:16:49;;;;;;;4.93;2.13;;;5.60;99.90;;;;;;5113841;27;20206;-74
2021/12/02 02:19:17;;;;;;;7.33;2.30;;;5.60;99.90;;;;;;5113496;27;20603;-74
2021/12/02 02:21:46;;;;;;;6.60;2.27;;;5.60;99.90;;;;;;5091094;28;20203;-74
2021/12/02 02:24:15;;;;;;;6.37;2.20;;;5.50;99.90;;;;;;5104920;28;20213;-74
2021/12/02 02:26:43;;;;;;;6.57;2.30;;;5.60;99.90;;;;;;5099392;28;20198;-74
2021/12/02 02:29:12;;;;;;;8.37;2.30;;;5.60;99.90;;;;;;5088966;28;20222;-74
2021/12/02 02:31:42;;;;;;;7.73;2.40;;;5.60;99.90;;;;;;5102484;28;20688;-74
2021/12/02 02:34:09;;;;;;;5.40;2.27;;;5.50;99.90;;;;;;5101439;28;20467;-74
2021/12/02 02:36:40;;;;;;;4.80;2.37;;;5.70;99.90;;;;;;5091894;28;20203;-74
2021/12/02 02:39:09;;;;;;;4.80;2.10;;;5.60;99.90;;;;;;5097538;28;20236;-74
2021/12/02 02:41:40;;;;;;;6.27;1.90;;;5.70;99.90;;;;;;5092045;28;20199;-74
2021/12/02 02:44:09;;;;;;;3.17;2.07;;;5.70;99.90;;;;;;5090792;28;20685;-74
2021/12/02 02:46:39;;;;;;;3.80;1.80;;;5.70;99.90;;;;;;5092175;28;20206;-74
2021/12/02 02:49:08;;;;;;;3.53;2.00;;;5.70;99.90;;;;;;5091495;28;20712;-74
2021/12/02 02:51:37;;;;;;;8.03;2.60;;;5.70;99.90;;;;;;5102270;28;20318;-74
2021/12/02 02:54:08;;;;;;;4.57;2.43;;;5.60;99.90;;;;;;5106163;28;20299;-74
2021/12/02 02:56:44;;;;;;;5.90;2.70;;;5.70;99.90;;;;;;5092238;28;20203;-74
2021/12/02 02:59:21;;;;;;;6.07;2.73;;;5.70;99.90;;;;;;5091556;28;20280;-74
2021/12/02 03:01:59;;;;;;;4.97;2.97;;;5.60;99.90;;;;;;5091669;28;20621;-74
2021/12/02 03:04:32;;;;;;;7.73;2.57;;;5.40;99.90;;;;;;5095394;28;20652;-74
2021/12/02 03:07:03;;;;;;;9.23;2.80;;;5.50;99.90;;;;;;5078909;28;20200;-74
2021/12/02 03:09:49;;;;;;;7.00;2.83;;;5.40;99.90;;;;;;5092108;28;20305;-74
2021/12/02 03:12:24;;;;;;;4.80;2.47;;;5.30;99.90;;;;;;5090660;28;20202;-74
2021/12/02 03:17:36;;;;;;;6.40;2.80;;;4.90;99.90;;;;;;5091960;28;20202;-74
2021/12/02 03:20:04;;;;;;;11.27;3.10;;;4.90;99.90;;;;;;5108821;27;20692;-75
2021/12/02 03:22:32;;;;;;;6.00;2.97;;;4.90;99.90;;;;;;5133271;27;20201;-74
2021/12/02 03:24:58;;;;;;;6.30;2.60;;;4.80;99.90;;;;;;5114241;27;20206;-74
2021/12/02 03:27:27;;;;;;;7.73;2.93;;;4.70;99.90;;;;;;5113534;27;20282;-74
2021/12/02 03:29:54;;;;;;;8.53;2.87;;;4.70;99.90;;;;;;5111565;28;20213;-74
2021/12/02 03:32:21;;;;;;;7.53;2.70;;;4.80;99.90;;;;;;5112172;28;20293;-74
2021/12/02 03:34:48;;;;;;;9.50;2.60;;;4.70;99.90;;;;;;5108345;28;20289;-74
2021/12/02 03:37:16;;;;;;;7.10;2.70;;;4.80;99.90;;;;;;5110037;27;20200;-74
2021/12/02 03:39:43;;;;;;;6.77;2.70;;;4.50;99.90;;;;;;5111620;28;20202;-74
2021/12/02 03:42:11;;;;;;;7.40;2.60;;;4.50;99.90;;;;;;5111204;28;20602;-74
2021/12/02 03:44:39;;;;;;;13.53;2.93;;;4.50;99.90;;;;;;5111999;27;20285;-74
2021/12/02 03:47:06;;;;;;;8.30;2.40;;;4.50;99.90;;;;;;5113196;28;20913;-74
2021/12/02 03:49:33;;;;;;;11.70;2.40;;;4.50;99.90;;;;;;5116009;28;20443;-74
2021/12/02 03:52:00;;;;;;;9.60;2.27;;;4.40;99.90;;;;;;5111444;28;20284;-74
2021/12/02 03:54:27;;;;;;;8.83;2.27;;;4.40;99.90;;;;;;5125875;28;20221;-74
2021/12/02 03:56:54;;;;;;;6.37;2.20;;;4.30;99.90;;;;;;5111257;28;20225;-74
2021/12/02 03:59:21;;;;;;;4.47;1.90;;;4.20;99.90;;;;;;5114473;28;20760;-74
2021/12/02 04:01:49;;;;;;;7.83;2.43;;;4.30;99.90;;;;;;5127586;28;20196;-74
2021/12/02 04:04:16;;;;;;;6.73;2.00;;;4.10;99.90;;;;;;5121006;28;20396;-73
2021/12/02 04:06:43;;;;;;;7.33;2.40;;;4.10;99.90;;;;;;5110699;28;20225;-74
2021/12/02 04:09:14;;;;;;;7.53;2.60;;;4.10;99.90;;;;;;5106895;28;20260;-74
2021/12/02 04:11:44;;;;;;;6.43;2.33;;;4.00;99.90;;;;;;5111728;28;20201;-74
2021/12/02 04:14:17;;;;;;;8.87;2.70;;;3.90;99.90;;;;;;5111373;28;20320;-73
2021/12/02 04:16:52;;;;;;;7.40;3.10;;;3.90;99.90;;;;;;5115802;27;20332;-74
2021/12/02 04:19:22;;;;;;;8.37;2.17;;;3.80;99.90;;;;;;5115308;27;20656;-74
2021/12/02 04:21:50;;;;;;;8.10;2.37;;;3.90;99.90;;;;;;5116737;27;20278;-73
2021/12/02 04:24:17;;;;;;;5.43;2.67;;;3.70;99.90;;;;;;5114916;28;20247;-74
2021/12/02 04:26:43;;;;;;;7.97;2.70;;;3.70;99.90;;;;;;5115317;28;20201;-74
2021/12/02 04:29:11;;;;;;;8.20;2.93;;;3.80;99.90;;;;;;5119527;27;20594;-73
2021/12/02 04:31:38;;;;;;;6.60;2.50;;;3.60;99.90;;;;;;5125733;27;20258;-74
2021/12/02 04:34:05;;;;;;;11.27;3.07;;;3.60;99.90;;;;;;5115495;28;20232;-74
2021/12/02 04:36:34;;;;;;;7.70;3.13;;;3.50;99.90;;;;;;5128843;27;20294;-74
2021/12/02 04:39:01;;;;;;;7.23;3.10;;;3.60;99.90;;;;;;5128555;27;20291;-74
2021/12/02 04:41:28;;;;;;;10.03;3.10;;;3.40;99.90;;;;;;5117845;27;20224;-74
2021/12/02 04:43:55;;;;;;;9.93;3.30;;;3.30;99.90;;;;;;5123592;27;20204;-74
2021/12/02 04:46:21;;;;;;;7.53;2.90;;;3.40;99.90;;;;;;5115652;27;20291;-73
2021/12/02 04:48:48;;;;;;;7.83;3.10;;;3.20;99.90;;;;;;5123774;27;20251;-74
2021/12/02 04:51:15;;;;;;;6.20;2.97;;;3.20;99.90;;;;;;5121817;27;20251;-73
2021/12/02 04:53:44;;;;;;;8.80;3.40;;;3.10;99.90;;;;;;5114295;27;20231;-74
2021/12/02 04:56:11;;;;;;;8.40;2.80;;;3.20;99.90;;;;;;5114414;28;20742;-74
2021/12/02 04:58:38;;;;;;;7.60;3.30;;;3.00;99.90;;;;;;5114713;28;20224;-74
2021/12/02 05:01:05;;;;;;;8.27;2.90;;;3.00;99.90;;;;;;5114485;28;20697;-74
2021/12/02 05:03:32;;;;;;;7.47;3.30;;;3.00;99.90;;;;;;5115772;27;20288;-74
2021/12/02 05:05:58;;;;;;;10.87;3.20;;;3.00;99.90;;;;;;5116410;27;20215;-74
2021/12/02 05:08:25;;;;;;;13.53;3.10;;;3.10;99.90;;;;;;5114907;28;20235;-74
2021/12/02 05:10:54;;;;;;;9.87;3.10;;;2.90;99.90;;;;;;5119882;27;20335;-74
2021/12/02 05:13:21;;;;;;;7.40;2.97;;;2.80;99.90;;;;;;5133944;27;20661;-74
2021/12/02 05:15:48;;;;;;;8.37;3.33;;;2.80;99.90;;;;;;5112334;27;20307;-74
2021/12/02 05:18:15;;;;;;;9.00;2.67;;;2.90;99.90;;;;;;5113756;28;20296;-74
2021/12/02 05:20:42;;;;;;;7.47;2.63;;;2.80;99.90;;;;;;5111405;28;20249;-74
2021/12/02 05:23:09;;;;;;;7.50;2.60;;;2.90;99.90;;;;;;5105626;28;20670;-74
2021/12/02 05:25:36;;;;;;;11.67;2.83;;;2.90;99.90;;;;;;5105562;28;20295;-74
2021/12/02 05:28:04;;;;;;;8.87;2.70;;;2.80;99.90;;;;;;5112065;27;20302;-74
2021/12/02 05:30:31;;;;;;;9.60;2.37;;;2.80;99.90;;;;;;5112371;28;20319;-74
2021/12/02 05:32:58;;;;;;;5.80;2.60;;;2.80;99.90;;;;;;5092423;28;20302;-74
2021/12/02 05:35:25;;;;;;;9.17;2.30;;;2.80;99.90;;;;;;5114782;27;20291;-74
2021/12/02 05:37:52;;;;;;;6.77;2.10;;;2.60;99.90;;;;;;5128599;27;20227;-74
2021/12/02 05:40:19;;;;;;;6.57;2.20;;;2.80;99.90;;;;;;5128275;27;20620;-74
2021/12/02 05:42:46;;;;;;;9.40;2.30;;;2.80;99.90;;;;;;5124274;27;20288;-74
2021/12/02 05:45:14;;;;;;;11.97;2.00;;;2.80;99.90;;;;;;5113649;28;20235;-74
2021/12/02 05:47:41;;;;;;;7.73;2.10;;;2.80;99.90;;;;;;5113498;28;21188;-73
2021/12/02 05:50:08;;;;;;;5.93;2.27;;;2.50;99.90;;;;;;5114716;27;20786;-74
2021/12/02 05:52:35;;;;;;;5.87;1.80;;;2.70;99.90;;;;;;5113721;27;20293;-74
2021/12/02 05:55:02;;;;;;;6.40;1.77;;;2.70;99.90;;;;;;5110931;27;20291;-74
2021/12/02 05:57:31;;;;;;;8.13;2.20;;;2.60;99.90;;;;;;5118547;27;20711;-74
2021/12/02 05:59:58;;;;;;;4.90;2.03;;;2.40;99.90;;;;;;5110074;28;20562;-75
2021/12/02 06:02:27;;;;;;;7.50;1.97;;;2.50;99.90;;;;;;5118089;27;20284;-76
2021/12/02 06:04:54;;;;;;;9.73;1.70;;;2.40;99.90;;;;;;5118281;27;20209;-75
2021/12/02 06:07:21;;;;;;;9.60;1.70;;;2.40;99.90;;;;;;5125399;27;20237;-75
2021/12/02 06:09:48;;;;;;;12.50;2.10;;;2.40;99.90;;;;;;5129861;27;20304;-75
2021/12/02 06:12:15;;;;;;;5.83;1.40;;;2.40;99.90;;;;;;5113930;28;20280;-75
2021/12/02 06:14:42;;;;;;;7.83;1.80;;;2.70;99.90;;;;;;5112761;27;20306;-75
2021/12/02 06:17:09;;;;;;;9.33;1.70;;;2.50;99.90;;;;;;5113028;28;20287;-75
2021/12/02 06:19:38;;;;;;;11.20;1.90;;;2.70;99.90;;;;;;5112613;28;20761;-75
2021/12/02 06:22:05;;;;;;;5.57;1.50;;;2.50;99.90;;;;;;5113839;28;20196;-75
2021/12/02 06:24:42;;;;;;;7.00;1.53;;;2.70;99.90;;;;;;5116806;27;20663;-74
2021/12/02 06:27:09;;;;;;;3.73;1.40;;;2.50;99.90;;;;;;5119339;27;20749;-76
2021/12/02 06:29:37;;;;;;;3.93;1.47;;;2.50;99.90;;;;;;5111265;28;20206;-74
2021/12/02 06:32:06;;;;;;;7.80;1.50;;;2.60;99.90;;;;;;5108632;28;20706;-75
2021/12/02 06:34:33;;;;;;;4.10;1.40;;;2.30;99.90;;;;;;5099596;28;20390;-75
2021/12/02 06:37:03;;;;;;;5.30;1.40;;;2.20;99.90;;;;;;5112089;27;20301;-74
2021/12/02 06:39:30;;;;;;;4.97;1.40;;;2.40;99.90;;;;;;5109901;28;20893;-75
2021/12/02 06:41:57;;;;;;;5.27;1.27;;;2.30;99.90;;;;;;5111815;27;20602;-75
2021/12/02 06:44:24;;;;;;;7.80;1.67;;;2.10;99.90;;;;;;5117262;27;20665;-73
2021/12/02 06:46:51;;;;;;;10.27;1.60;;;2.40;99.90;;;;;;5112538;28;20315;-76
2021/12/02 06:49:18;;;;;;;9.67;1.37;;;2.40;99.90;;;;;;5110818;27;20243;-74
2021/12/02 06:51:45;;;;;;;8.03;1.50;;;2.10;99.90;;;;;;5118058;27;20292;-74
2021/12/02 06:54:13;;;;;;;4.83;1.23;;;2.00;99.90;;;;;;5115471;27;20229;-74
2021/12/02 06:56:40;;;;;;;3.43;1.30;;;1.90;99.90;;;;;;5111999;28;20231;-74
2021/12/02 06:59:07;;;;;;;7.87;1.50;;;2.00;99.90;;;;;;5112925;28;20282;-74
2021/12/02 07:01:34;;;;;;;9.43;1.83;;;1.90;99.90;;;;;;5112161;28;20226;-76
2021/12/02 07:04:01;;;;;;;9.80;1.70;;;1.80;99.90;;;;;;5112336;28;20289;-74
2021/12/02 07:06:28;;;;;;;11.27;1.53;;;1.80;99.90;;;;;;5112315;28;20287;-74
2021/12/02 07:08:55;;;;;;;9.00;1.50;;;1.80;99.90;;;;;;5112518;28;20297;-74
2021/12/02 07:11:23;;;;;;;7.43;1.90;;;1.90;99.90;;;;;;5112352;28;20330;-74
2021/12/02 07:13:54;;;;;;;10.77;1.53;;;1.80;99.90;;;;;;5112687;28;20227;-75
2021/12/02 07:16:21;;;;;;;6.27;1.63;;;1.80;99.90;;;;;;5112030;28;20255;-74
2021/12/02 07:18:54;;;;;;;9.87;1.87;;;2.10;99.90;;;;;;5112424;28;20203;-75
2021/12/02 07:21:21;;;;;;;8.73;1.90;;;2.00;99.90;;;;;;5112188;28;20228;-74
2021/12/02 07:23:48;;;;;;;6.83;1.50;;;2.20;99.90;;;;;;5112300;28;20199;-74
2021/12/02 07:26:15;;;;;;;8.67;1.40;;;1.90;99.90;;;;;;5112388;28;20252;-74
2021/12/02 07:28:45;;;;;;;11.03;1.63;;;1.80;99.90;;;;;;5111957;28;20202;-74
2021/12/02 07:31:13;;;;;;;8.83;1.20;;;1.80;99.90;;;;;;5111858;28;20264;-75
2021/12/02 07:33:47;;;;;;;5.63;1.60;;;1.90;99.90;;;;;;5111902;28;20735;-74
2021/12/02 07:36:14;;;;;;;9.70;1.60;;;1.80;99.90;;;;;;5112069;28;20198;-74
2021/12/02 07:38:42;;;;;;;5.73;1.47;;;2.20;99.90;;;;;;5112024;28;20233;-74
2021/12/02 07:41:09;;;;;;;9.97;1.47;;;2.10;99.90;;;;;;5112019;28;20203;-74
2021/12/02 07:43:39;;;;;;;7.03;1.60;;;2.20;99.90;;;;;;5111872;28;20583;-74
2021/12/02 07:46:08;;;;;;;11.17;1.40;;;1.90;99.90;;;;;;5112014;28;20227;-74
2021/12/02 07:48:35;;;;;;;8.53;1.90;;;2.10;99.90;;;;;;5111903;28;20294;-74
2021/12/02 07:51:05;;;;;;;8.37;1.87;;;2.10;99.90;;;;;;5111101;28;20400;-74
2021/12/02 07:53:32;;;;;;;7.30;1.70;;;2.50;99.90;;;;;;5111590;28;20297;-75
2021/12/02 07:56:03;;;;;;;6.10;1.50;;;2.30;99.90;;;;;;5104327;28;20285;-74
2021/12/02 07:58:31;;;;;;;10.90;1.67;;;2.50;99.90;;;;;;5131876;28;20252;-75
2021/12/02 08:01:00;;;;;;;6.77;1.40;;;3.10;99.90;;;;;;5115866;28;20224;-75
2021/12/02 08:03:29;;;;;;;4.73;1.10;;;3.10;99.90;;;;;;5118149;28;20275;-75
2021/12/02 08:05:56;;;;;;;5.93;1.50;;;3.40;99.90;;;;;;5131617;28;20600;-74
2021/12/02 08:08:24;;;;;;;4.40;1.50;;;4.00;99.90;;;;;;5117814;28;20288;-75
2021/12/02 08:10:51;;;;;;;3.03;1.07;;;4.50;99.90;;;;;;5111529;28;20312;-75
2021/12/02 08:13:17;;;;;;;5.07;1.20;;;4.80;99.90;;;;;;5110980;28;20744;-74
2021/12/02 08:15:44;;;;;;;6.23;1.27;;;5.30;99.90;;;;;;5111483;28;20248;-75
2021/12/02 08:18:12;;;;;;;10.30;1.60;;;5.90;99.90;;;;;;5093448;28;20209;-75
2021/12/02 08:20:40;;;;;;;11.70;5.20;;;6.50;99.90;;;;;;5111535;28;20329;-75
2021/12/02 08:23:07;;;;;;;18.43;9.10;;;7.00;99.90;;;;;;5111590;28;20204;-75
2021/12/02 08:25:34;;;;;;;17.63;8.50;;;7.10;99.90;;;;;;5111880;28;20290;-75
2021/12/02 08:28:02;;;;;;;15.97;7.03;;;7.60;99.90;;;;;;5111095;28;20229;-75
2021/12/02 08:30:33;;;;;;;9.90;6.40;;;8.00;99.90;;;;;;5111901;28;20309;-75
2021/12/02 08:33:01;;;;;;;9.00;3.90;;;8.20;99.90;;;;;;5111681;28;20221;-75
2021/12/02 08:35:29;;;;;;;5.20;2.80;;;8.50;99.90;;;;;;5112046;28;20202;-75
2021/12/02 08:38:01;;;;;;;9.47;4.10;;;8.70;99.90;;;;;;5111846;28;20285;-75
2021/12/02 08:40:31;;;;;;;10.03;4.57;;;8.80;99.90;;;;;;5111738;28;20284;-75
2021/12/02 08:42:59;;;;;;;12.53;4.60;;;9.00;99.90;;;;;;5110861;28;20252;-73
2021/12/02 08:45:27;;;;;;;7.73;3.63;;;9.00;99.90;;;;;;5111865;28;20560;-73
2021/12/02 08:47:55;;;;;;;8.10;3.23;;;9.30;99.90;;;;;;5111679;28;20221;-75
2021/12/02 08:50:22;;;;;;;10.07;3.30;;;9.80;99.90;;;;;;5111455;28;20264;-74
2021/12/02 08:52:51;;;;;;;6.77;3.20;;;10.30;99.90;;;;;;5111176;28;20209;-75
2021/12/02 08:55:21;;;;;;;8.20;3.10;;;11.00;99.90;;;;;;5111856;28;20286;-75
2021/12/02 08:57:50;;;;;;;8.40;3.50;;;11.80;99.90;;;;;;5111046;28;20553;-74
2021/12/02 09:00:19;;;;;;;6.07;2.40;;;12.10;99.90;;;;;;5111284;28;20194;-74
2021/12/02 09:02:46;;;;;;;7.33;2.40;;;12.30;99.90;;;;;;5114476;28;20728;-75
2021/12/02 09:05:14;;;;;;;8.33;2.40;;;10.90;99.90;;;;;;5096744;28;20198;-75
2021/12/02 09:07:42;;;;;;;7.57;2.47;;;9.00;99.90;;;;;;5114696;28;20201;-74
2021/12/02 09:10:10;;;;;;;8.40;3.17;;;8.00;99.90;;;;;;5114690;28;20312;-75
2021/12/02 09:12:38;;;;;;;7.67;2.43;;;7.70;99.90;;;;;;5114838;28;20229;-74
2021/12/02 09:15:08;;;;;;;8.80;2.80;;;7.30;99.90;;;;;;5114750;28;20309;-74
2021/12/02 09:17:35;;;;;;;10.00;3.10;;;6.70;99.90;;;;;;5115195;28;20293;-74
2021/12/02 09:20:02;;;;;;;7.73;3.00;;;6.60;99.90;;;;;;5114475;28;20227;-74
2021/12/02 09:22:29;;;;;;;10.03;3.23;;;6.60;99.90;;;;;;5114790;28;20295;-74
2021/12/02 09:24:56;;;;;;;7.17;3.30;;;6.40;99.90;;;;;;5114677;28;20284;-74
2021/12/02 09:27:23;;;;;;;7.47;3.20;;;6.10;99.90;;;;;;5114135;28;20259;-74
2021/12/02 09:29:51;;;;;;;8.20;2.93;;;6.20;99.90;;;;;;5115113;28;20280;-74
2021/12/02 09:32:18;;;;;;;10.67;3.07;;;6.40;99.90;;;;;;5114499;28;20283;-74
2021/12/02 09:34:45;;;;;;;6.20;2.60;;;6.40;99.90;;;;;;5114792;28;20288;-74
2021/12/02 09:37:12;;;;;;;6.43;2.40;;;6.20;99.90;;;;;;5114331;28;20233;-75
2021/12/02 09:39:39;;;;;;;9.47;2.60;;;6.30;99.90;;;;;;5114462;28;20316;-74
2021/12/02 09:42:10;;;;;;;6.80;2.23;;;6.10;99.90;;;;;;5113981;28;20221;-75
2021/12/02 09:44:37;;;;;;;7.03;2.23;;;6.40;99.90;;;;;;5114408;28;20291;-74
2021/12/02 09:47:07;;;;;;;9.47;3.00;;;6.50;99.90;;;;;;5114322;28;20292;-74
2021/12/02 09:49:35;;;;;;;7.53;2.90;;;6.60;99.90;;;;;;5114234;28;20284;-74
2021/12/02 09:52:04;;;;;;;8.93;3.17;;;6.70;99.90;;;;;;5114526;28;20221;-74
2021/12/02 09:54:37;;;;;;;10.97;3.43;;;6.90;99.90;;;;;;5113604;28;20210;-74
2021/12/02 09:57:07;;;;;;;10.77;3.40;;;6.90;99.90;;;;;;5114558;28;20201;-74
2021/12/02 09:59:45;;;;;;;9.27;3.97;;;6.80;99.90;;;;;;5113769;28;20201;-74
2021/12/02 10:02:17;;;;;;;9.50;3.97;;;6.70;99.90;;;;;;5113920;28;20197;-74
2021/12/02 10:04:50;;;;;;;9.60;3.77;;;6.90;99.90;;;;;;5113564;28;20247;-74
2021/12/02 10:07:22;;;;;;;14.70;4.03;;;6.80;99.90;;;;;;5113927;28;20209;-74
2021/12/02 10:09:56;;;;;;;12.03;3.47;;;6.60;99.90;;;;;;5113874;28;20193;-74
2021/12/02 10:12:24;;;;;;;11.03;3.33;;;6.50;99.90;;;;;;5113395;28;20358;-74
2021/12/02 10:14:54;;;;;;;8.03;3.27;;;6.60;99.90;;;;;;5113094;28;20222;-74
2021/12/02 10:17:32;;;;;;;13.13;3.27;;;6.40;99.90;;;;;;5113803;28;20200;-74
2021/12/02 10:20:15;;;;;;;7.90;3.10;;;6.30;99.90;;;;;;5113765;28;20233;-74
2021/12/02 10:22:46;;;;;;;5.87;2.97;;;6.30;99.90;;;;;;5113069;28;20201;-74
2021/12/02 10:25:29;;;;;;;10.53;4.07;;;6.10;99.90;;;;;;5113364;28;20649;-74
2021/12/02 10:28:03;;;;;;;8.80;3.97;;;6.50;99.90;;;;;;5113588;28;20202;-74
2021/12/02 10:30:30;;;;;;;14.60;4.30;;;6.50;99.90;;;;;;5113433;28;20285;-74
2021/12/02 10:32:58;;;;;;;17.40;5.67;;;6.60;99.90;;;;;;5113375;28;20238;-75
2021/12/02 10:35:38;;;;;;;12.37;4.70;;;6.70;99.90;;;;;;5113344;28;20701;-74
2021/12/02 10:38:05;;;;;;;11.13;4.67;;;6.60;99.90;;;;;;5112872;28;20284;-74
2021/12/02 10:40:33;;;;;;;11.97;4.23;;;6.20;99.90;;;;;;5113048;28;20293;-75
2021/12/02 10:43:08;;;;;;;9.00;3.40;;;6.40;99.90;;;;;;5113092;28;20197;-74
2021/12/02 10:45:35;;;;;;;7.63;3.57;;;6.30;99.90;;;;;;5113158;28;20661;-74
2021/12/02 10:48:04;;;;;;;10.77;4.10;;;6.20;99.90;;;;;;5112865;28;20301;-74
2021/12/02 10:50:40;;;;;;;11.57;4.37;;;6.30;99.90;;;;;;5113178;28;20288;-75
2021/12/02 10:53:07;;;;;;;10.57;4.47;;;6.50;99.90;;;;;;5112422;28;20212;-74
2021/12/02 10:55:35;;;;;;;13.30;4.40;;;6.20;99.90;;;;;;5112916;28;20284;-74
2021/12/02 10:58:03;;;;;;;9.90;4.10;;;6.10;99.90;;;;;;5113056;28;20194;-75
2021/12/02 11:00:32;;;;;;;15.50;6.93;;;6.40;99.90;;;;;;5113068;28;20293;-75
2021/12/02 11:03:07;;;;;;;11.10;6.03;;;6.30;99.90;;;;;;5112810;28;20204;-74
2021/12/02 11:05:36;;;;;;;10.13;4.90;;;6.40;99.90;;;;;;5112995;28;20225;-74
2021/12/02 11:08:06;;;;;;;8.93;4.27;;;6.40;99.90;;;;;;5112282;28;20301;-74
2021/12/02 11:10:35;;;;;;;11.67;4.70;;;6.20;99.90;;;;;;5119475;27;20193;-74
2021/12/02 11:13:03;;;;;;;8.67;4.03;;;6.50;99.90;;;;;;5121573;27;20194;-74
2021/12/02 11:15:32;;;;;;;9.37;3.83;;;6.20;99.90;;;;;;5112202;28;20615;-74
2021/12/02 11:18:02;;;;;;;9.23;3.77;;;6.50;99.90;;;;;;5112394;28;20285;-74
2021/12/02 11:20:31;;;;;;;10.10;4.20;;;6.40;99.90;;;;;;5112445;28;20243;-74
2021/12/02 11:23:03;;;;;;;9.73;3.87;;;6.20;99.90;;;;;;5111486;28;20896;-74
2021/12/02 11:25:30;;;;;;;5.43;3.37;;;6.20;99.90;;;;;;5112457;28;20202;-74
2021/12/02 11:27:58;;;;;;;7.40;2.90;;;6.10;99.90;;;;;;5112098;28;20610;-75
2021/12/02 11:30:26;;;;;;;7.37;2.57;;;6.10;99.90;;;;;;5112486;28;20197;-74
2021/12/02 11:32:56;;;;;;;6.20;1.93;;;5.90;99.90;;;;;;5112425;28;20255;-74
2021/12/02 11:35:31;;;;;;;4.53;1.97;;;5.90;99.90;;;;;;5112331;28;20653;-74
2021/12/02 11:38:04;;;;;;;4.63;1.60;;;5.90;99.90;;;;;;5112152;28;20204;-76
2021/12/02 11:40:34;;;;;;;3.87;1.57;;;5.70;99.90;;;;;;5112478;28;20252;-75
2021/12/02 11:43:01;;;;;;;3.43;1.23;;;5.70;99.90;;;;;;5111847;28;20677;-75
2021/12/02 11:45:32;;;;;;;4.07;1.53;;;5.90;99.90;;;;;;5112275;28;20702;-75
2021/12/02 11:48:00;;;;;;;2.80;1.50;;;5.80;99.90;;;;;;5111794;28;20292;-75
2021/12/02 11:50:29;;;;;;;2.73;1.27;;;5.90;99.90;;;;;;5111934;28;20230;-75
2021/12/02 11:52:56;;;;;;;4.57;1.43;;;6.50;99.90;;;;;;5093777;28;20226;-75
2021/12/02 11:55:27;;;;;;;7.80;1.90;;;7.00;99.90;;;;;;5112295;28;20265;-75
2021/12/02 11:57:55;;;;;;;3.83;1.70;;;7.00;99.90;;;;;;5112456;28;20239;-74
2021/12/02 12:00:24;;;;;;;3.43;1.50;;;7.20;99.90;;;;;;5111858;28;20288;-75
2021/12/02 12:02:56;;;;;;;3.33;1.47;;;7.60;99.90;;;;;;5112089;28;20296;-75
2021/12/02 12:05:28;;;;;;;4.83;1.70;;;7.60;99.90;;;;;;5111606;28;20205;-75
2021/12/02 12:07:56;;;;;;;3.77;1.87;;;7.30;99.90;;;;;;5118374;28;20255;-75
2021/12/02 12:10:27;;;;;;;6.50;2.50;;;7.40;99.90;;;;;;5111659;28;20284;-75
2021/12/02 12:13:11;;;;;;;5.23;1.80;;;8.10;99.90;;;;;;5094389;28;20328;-75
2021/12/02 12:15:41;;;;;;;4.43;1.73;;;8.60;99.90;;;;;;5112097;28;20227;-75
2021/12/02 12:18:10;;;;;;;3.30;1.73;;;8.10;99.90;;;;;;5111639;28;20226;-75
2021/12/02 12:20:59;;;;;;;3.53;1.73;;;7.50;99.90;;;;;;5111618;28;20269;-75
2021/12/02 12:23:34;;;;;;;5.13;1.90;;;7.20;99.90;;;;;;5091166;28;20233;-75
2021/12/02 12:26:30;;;;;;;4.67;1.80;;;7.00;99.90;;;;;;5103325;28;20284;-75
2021/12/02 12:29:18;;;;;;;4.07;1.90;;;6.70;99.90;;;;;;5093747;28;20244;-75
2021/12/02 12:35:09;;;;;;;2.60;1.50;;;6.50;99.90;;;;;;5097904;28;20622;-75
2021/12/02 12:37:52;;;;;;;3.10;1.50;;;6.30;99.90;;;;;;5114668;28;20300;-75
2021/12/02 12:40:25;;;;;;;2.40;1.40;;;6.20;99.90;;;;;;5115091;27;20214;-73
2021/12/02 12:43:27;;;;;;;2.73;1.23;;;6.10;99.90;;;;;;5110131;28;20204;-75
2021/12/02 12:46:18;;;;;;;1.47;1.00;;;6.00;99.90;;;;;;5115773;28;20292;-75
2021/12/02 12:48:46;;;;;;;3.43;1.20;;;5.70;99.90;;;;;;5115123;28;20290;-75
2021/12/02 12:51:32;;;;;;;3.73;1.50;;;5.80;99.90;;;;;;5115504;28;20239;-75
2021/12/02 12:54:02;;;;;;;3.70;1.30;;;5.90;99.90;;;;;;5115229;28;20296;-75
2021/12/02 12:56:36;;;;;;;3.47;1.30;;;5.70;99.90;;;;;;5096920;28;20624;-75
2021/12/02 12:59:11;;;;;;;2.83;1.17;;;5.70;99.90;;;;;;5115563;27;20206;-74
2021/12/02 13:01:40;;;;;;;1.47;1.10;;;5.60;99.90;;;;;;5115139;28;20294;-75
2021/12/02 13:04:10;;;;;;;3.40;1.30;;;6.10;99.90;;;;;;5115237;28;20715;-75
2021/12/02 13:07:03;;;;;;;3.33;1.80;;;6.10;99.90;;;;;;5115113;28;20254;-75
2021/12/02 13:09:43;;;;;;;3.03;1.43;;;6.30;99.90;;;;;;5114962;28;20236;-75
2021/12/02 13:12:12;;;;;;;3.03;1.73;;;6.30;99.90;;;;;;5126128;27;20311;-75
2021/12/02 13:14:42;;;;;;;3.10;1.70;;;6.40;99.90;;;;;;5135510;27;20304;-75